createdAt,value
2023-01-15T00:01:51.865Z,99779.22
2023-01-15T00:04:18.401Z,99766.19
2023-01-15T00:06:45.020Z,99761.94
2023-01-15T00:09:15.277Z,99773.00
2023-01-15T00:11:42.178Z,99771.44
2023-01-15T00:14:09.234Z,99764.38
2023-01-15T00:16:36.135Z,99774.56
2023-01-15T00:19:04.482Z,99780.09
2023-01-15T00:21:31.905Z,99776.00
2023-01-15T00:24:17.347Z,99779.69
2023-01-15T00:27:03.125Z,99776.28
2023-01-15T00:29:29.905Z,99770.31
2023-01-15T00:31:59.142Z,99788.44
2023-01-15T00:34:26.673Z,99775.28
2023-01-15T00:36:53.635Z,99766.63
2023-01-15T00:39:20.724Z,99773.00
2023-01-15T00:41:47.998Z,99773.72
2023-01-15T00:44:15.369Z,99766.34
2023-01-15T00:46:42.519Z,99765.38
2023-01-15T00:49:09.544Z,99764.50
2023-01-15T00:51:36.982Z,99776.25
2023-01-15T00:54:04.350Z,99782.50
2023-01-15T00:56:31.405Z,99781.78
2023-01-15T00:58:58.050Z,99789.84
2023-01-15T01:01:24.652Z,99788.03
2023-01-15T01:03:53.095Z,99785.31
2023-01-15T01:06:22.918Z,99789.00
2023-01-15T01:08:49.803Z,99789.16
2023-01-15T01:11:24.936Z,99791.84
2023-01-15T01:13:51.597Z,99798.91
2023-01-15T01:16:26.527Z,99795.25
2023-01-15T01:18:54.554Z,99795.50
2023-01-15T01:21:21.364Z,99798.75
2023-01-15T01:23:48.473Z,99793.66
2023-01-15T01:26:15.400Z,99782.34
2023-01-15T01:28:43.289Z,99791.38
2023-01-15T01:31:10.087Z,99787.00
2023-01-15T01:33:36.655Z,99795.91
2023-01-15T01:36:03.852Z,99790.41
2023-01-15T01:38:30.393Z,99783.47
2023-01-15T01:40:57.081Z,99781.75
2023-01-15T01:43:29.830Z,99779.34
2023-01-15T01:45:56.900Z,99786.00
2023-01-15T01:48:31.568Z,99790.97
2023-01-15T01:51:01.748Z,99783.03
2023-01-15T01:53:30.721Z,99786.84
2023-01-15T01:55:58.519Z,99792.50
2023-01-15T01:58:29.560Z,99789.13
2023-01-15T02:00:57.107Z,99783.59
2023-01-15T02:03:30.314Z,99790.81
2023-01-15T02:06:00.710Z,99782.88
2023-01-15T02:08:28.651Z,99783.88
2023-01-15T02:10:56.600Z,99788.53
2023-01-15T02:13:35.867Z,99785.84
2023-01-15T02:16:21.787Z,99787.84
2023-01-15T02:19:29.846Z,99790.53
2023-01-15T02:22:21.334Z,99796.88
2023-01-15T02:25:00.059Z,99787.25
2023-01-15T02:27:28.574Z,99788.41
2023-01-15T02:30:07.664Z,99781.31
2023-01-15T02:32:48.689Z,99778.63
2023-01-15T02:35:27.325Z,99782.44
2023-01-15T02:37:59.981Z,99783.56
2023-01-15T02:40:28.888Z,99791.78
2023-01-15T02:42:57.577Z,99785.56
2023-01-15T02:45:30.423Z,99777.63
2023-01-15T02:48:08.544Z,99767.59
2023-01-15T02:50:39.413Z,99771.41
2023-01-15T02:53:11.169Z,99774.22
2023-01-15T02:55:43.583Z,99776.78
2023-01-15T02:58:20.723Z,99751.75
2023-01-15T03:00:51.538Z,99758.22
2023-01-15T03:03:23.883Z,99760.47
2023-01-15T03:06:13.965Z,99756.22
2023-01-15T03:08:40.843Z,99756.34
2023-01-15T03:11:11.404Z,99762.88
2023-01-15T03:13:56.130Z,99765.69
2023-01-15T03:16:37.911Z,99766.53
2023-01-15T03:19:31.405Z,99763.13
2023-01-15T03:22:12.639Z,99768.50
2023-01-15T03:24:47.639Z,99761.56
2023-01-15T03:27:16.723Z,99763.56
2023-01-15T03:29:51.814Z,99764.53
2023-01-15T03:32:20.197Z,99748.56
2023-01-15T03:34:53.282Z,99750.41
2023-01-15T03:37:23.672Z,99747.84
2023-01-15T03:39:52.536Z,99742.47
2023-01-15T03:43:14.593Z,99736.38
2023-01-15T03:45:44.169Z,99746.16
2023-01-15T03:48:14.060Z,99742.75
2023-01-15T03:50:52.835Z,99747.41
2023-01-15T03:53:23.614Z,99747.41
2023-01-15T03:56:06.683Z,99758.03
2023-01-15T03:58:44.419Z,99758.88
2023-01-15T04:01:19.818Z,99755.47
2023-01-15T04:03:48.882Z,99748.53
2023-01-15T04:06:17.995Z,99752.22
2023-01-15T04:08:46.486Z,99757.13
2023-01-15T04:11:13.520Z,99759.13
2023-01-15T04:13:45.759Z,99759.13
2023-01-15T04:16:27.861Z,99747.38
2023-01-15T04:18:55.132Z,99743.00
2023-01-15T04:21:23.113Z,99747.53
2023-01-15T04:23:50.304Z,99751.19
2023-01-15T04:26:17.342Z,99751.19
2023-01-15T04:28:44.008Z,99748.66
2023-01-15T04:31:10.734Z,99756.84
2023-01-15T04:33:39.070Z,99755.00
2023-01-15T04:36:07.441Z,99746.09
2023-01-15T04:38:34.027Z,99741.84
2023-01-15T04:41:20.977Z,99742.13
2023-01-15T04:44:06.014Z,99743.25
2023-01-15T04:46:35.102Z,99750.59
2023-01-15T04:49:02.317Z,99748.88
2023-01-15T04:51:28.849Z,99752.56
2023-01-15T04:53:55.500Z,99762.59
2023-01-15T04:56:22.041Z,99763.56
2023-01-15T04:58:48.850Z,99760.03
2023-01-15T05:01:17.299Z,99763.72
2023-01-15T05:03:43.998Z,99774.44
2023-01-15T05:06:10.839Z,99763.72
2023-01-15T05:08:37.370Z,99763.72
2023-01-15T05:11:05.294Z,99769.78
2023-01-15T05:13:33.498Z,99766.97
2023-01-15T05:16:18.165Z,99768.94
2023-01-15T05:18:46.327Z,99766.38
2023-01-15T05:21:18.497Z,99763.84
2023-01-15T05:23:45.146Z,99760.44
2023-01-15T05:26:11.948Z,99767.78
2023-01-15T05:28:38.808Z,99758.75
2023-01-15T05:31:07.816Z,99759.47
2023-01-15T05:33:34.546Z,99749.69
2023-01-15T05:36:05.344Z,99754.09
2023-01-15T05:38:32.875Z,99763.00
2023-01-15T05:40:59.470Z,99754.94
2023-01-15T05:43:26.073Z,99755.06
2023-01-15T05:45:52.668Z,99754.22
2023-01-15T05:48:19.226Z,99745.31
2023-01-15T05:50:45.771Z,99754.34
2023-01-15T05:53:12.300Z,99746.31
2023-01-15T05:55:38.778Z,99748.28
2023-01-15T05:58:05.309Z,99739.25
2023-01-15T06:00:31.869Z,99746.56
2023-01-15T06:02:58.426Z,99761.84
2023-01-15T06:05:24.963Z,99751.09
2023-01-15T06:07:52.837Z,99750.25
2023-01-15T06:10:19.503Z,99741.22
2023-01-15T06:12:46.027Z,99744.75
2023-01-15T06:15:12.647Z,99752.78
2023-01-15T06:17:39.185Z,99743.88
2023-01-15T06:20:06.170Z,99750.25
2023-01-15T06:22:32.814Z,99761.13
2023-01-15T06:24:59.278Z,99767.47
2023-01-15T06:27:25.847Z,99769.31
2023-01-15T06:29:53.806Z,99767.56
2023-01-15T06:32:20.394Z,99766.63
2023-01-15T06:34:46.893Z,99775.38
2023-01-15T06:37:13.639Z,99772.69
2023-01-15T06:39:40.166Z,99777.94
2023-01-15T06:42:25.063Z,99760.84
2023-01-15T06:45:09.814Z,99771.72
2023-01-15T06:47:36.349Z,99782.44
2023-01-15T06:50:03.101Z,99781.88
2023-01-15T06:52:30.069Z,99781.00
2023-01-15T06:54:56.933Z,99780.13
2023-01-15T06:57:23.762Z,99772.94
2023-01-15T06:59:50.904Z,99779.06
2023-01-15T07:02:18.238Z,99772.94
2023-01-15T07:04:45.353Z,99780.28
2023-01-15T07:07:11.950Z,99778.72
2023-01-15T07:09:38.529Z,99779.69
2023-01-15T07:12:05.272Z,99788.84
2023-01-15T07:14:33.019Z,99799.84
2023-01-15T07:16:59.615Z,99800.13
2023-01-15T07:19:27.302Z,99809.16
2023-01-15T07:21:54.018Z,99805.75
2023-01-15T07:24:20.559Z,99802.22
2023-01-15T07:26:47.203Z,99801.38
2023-01-15T07:29:14.100Z,99813.09
2023-01-15T07:31:41.539Z,99805.03
2023-01-15T07:34:08.608Z,99802.44
2023-01-15T07:36:35.315Z,99808.66
2023-01-15T07:39:04.872Z,99823.06
2023-01-15T07:41:50.065Z,99813.31
2023-01-15T07:44:35.507Z,99805.25
2023-01-15T07:47:21.099Z,99814.44
2023-01-15T07:49:49.055Z,99816.41
2023-01-15T07:52:20.234Z,99818.34
2023-01-15T07:54:47.738Z,99813.00
2023-01-15T07:57:18.001Z,99815.81
2023-01-15T07:59:44.594Z,99814.81
2023-01-15T08:02:11.995Z,99816.53
2023-01-15T08:04:38.614Z,99815.53
2023-01-15T08:07:06.357Z,99820.06
2023-01-15T08:09:32.908Z,99811.03
2023-01-15T08:12:19.027Z,99817.25
2023-01-15T08:15:04.530Z,99831.63
2023-01-15T08:17:34.787Z,99822.88
2023-01-15T08:20:02.769Z,99828.38
2023-01-15T08:22:29.323Z,99835.56
2023-01-15T08:24:55.900Z,99829.47
2023-01-15T08:27:22.582Z,99830.47
2023-01-15T08:29:49.183Z,99828.75
2023-01-15T08:32:15.692Z,99837.78
2023-01-15T08:34:42.290Z,99830.72
2023-01-15T08:37:09.019Z,99828.75
2023-01-15T08:39:35.486Z,99828.38
2023-01-15T08:42:02.071Z,99829.69
2023-01-15T08:44:28.604Z,99837.81
2023-01-15T08:46:55.104Z,99823.75
2023-01-15T08:49:21.889Z,99813.09
2023-01-15T08:51:51.773Z,99817.78
2023-01-15T08:54:20.512Z,99818.69
2023-01-15T08:56:47.897Z,99823.25
2023-01-15T08:59:14.503Z,99824.41
2023-01-15T09:01:41.957Z,99817.38
2023-01-15T09:04:13.767Z,99806.66
2023-01-15T09:06:42.903Z,99821.25
2023-01-15T09:09:13.334Z,99816.19
2023-01-15T09:11:41.740Z,99819.06
2023-01-15T09:14:09.520Z,99820.34
2023-01-15T09:16:56.093Z,99817.25
2023-01-15T09:19:22.761Z,99799.72
2023-01-15T09:21:49.284Z,99807.38
2023-01-15T09:24:15.807Z,99808.63
2023-01-15T09:26:42.317Z,99812.75
2023-01-15T09:29:10.290Z,99822.94
2023-01-15T09:31:36.906Z,99823.38
2023-01-15T09:34:03.700Z,99815.88
2023-01-15T09:36:32.755Z,99827.19
2023-01-15T09:39:00.987Z,99827.19
2023-01-15T09:42:10.394Z,99829.03
2023-01-15T09:45:14.561Z,99819.97
2023-01-15T09:47:54.701Z,99820.97
2023-01-15T09:51:05.567Z,99817.56
2023-01-15T09:53:47.521Z,99815.72
2023-01-15T09:56:22.375Z,99822.25
2023-01-15T09:58:50.534Z,99807.94
2023-01-15T10:01:20.763Z,99814.31
2023-01-15T10:03:57.496Z,99811.91
2023-01-15T10:06:36.809Z,99806.09
2023-01-15T10:09:11.564Z,99816.28
2023-01-15T10:12:04.847Z,99810.19
2023-01-15T10:14:39.434Z,99840.47
2023-01-15T10:17:17.935Z,99844.72
2023-01-15T10:19:45.143Z,99842.47
2023-01-15T10:22:40.639Z,99834.84
2023-01-15T10:25:16.098Z,99834.84
2023-01-15T10:27:45.826Z,99836.72
2023-01-15T10:30:22.225Z,99841.00
2023-01-15T10:33:04.015Z,99827.25
2023-01-15T10:35:46.775Z,99851.06
2023-01-15T10:38:35.579Z,99841.69
2023-01-15T10:41:17.701Z,99844.81
2023-01-15T10:43:56.227Z,99838.59
2023-01-15T10:46:33.504Z,99835.19
2023-01-15T10:49:05.698Z,99834.06
2023-01-15T10:51:54.001Z,99831.91
2023-01-15T10:54:27.304Z,99815.63
2023-01-15T10:57:02.191Z,99846.22
2023-01-15T10:59:50.592Z,99832.63
2023-01-15T11:02:28.124Z,99839.56
2023-01-15T11:04:55.307Z,99839.56
2023-01-15T11:07:35.938Z,99842.38
2023-01-15T11:10:05.853Z,99847.31
2023-01-15T11:12:50.802Z,99855.25
2023-01-15T11:15:42.653Z,99850.84
2023-01-15T11:18:43.582Z,99842.22
2023-01-15T11:21:17.253Z,99850.31
2023-01-15T11:23:44.647Z,99845.75
2023-01-15T11:26:19.976Z,99838.97
2023-01-15T11:28:47.185Z,99844.66
2023-01-15T11:31:15.422Z,99842.38
2023-01-15T11:34:02.540Z,99832.06
2023-01-15T11:36:31.061Z,99837.72
2023-01-15T11:38:57.937Z,99832.91
2023-01-15T11:41:49.968Z,99839.72
2023-01-15T11:44:36.889Z,99856.56
2023-01-15T11:47:28.615Z,99844.66
2023-01-15T11:50:14.168Z,99844.78
2023-01-15T11:52:48.283Z,99850.03
2023-01-15T11:55:21.226Z,99843.69
2023-01-15T11:57:49.349Z,99841.13
2023-01-15T12:00:26.885Z,99850.47
2023-01-15T12:03:00.368Z,99853.28
2023-01-15T12:05:35.571Z,99846.50
2023-01-15T12:08:16.788Z,99842.22
2023-01-15T12:11:21.082Z,99843.34
2023-01-15T12:14:31.501Z,99835.69
2023-01-15T12:17:06.889Z,99840.22
2023-01-15T12:19:33.276Z,99859.47
2023-01-15T12:22:18.153Z,99842.91
2023-01-15T12:25:18.321Z,99847.41
2023-01-15T12:27:53.801Z,99844.31
2023-01-15T12:30:32.607Z,99834.81
2023-01-15T12:33:22.044Z,99828.00
2023-01-15T12:35:56.983Z,99833.94
2023-01-15T12:38:42.234Z,99840.72
2023-01-15T12:41:14.617Z,99839.03
2023-01-15T12:44:04.531Z,99832.09
2023-01-15T12:46:34.665Z,99832.09
2023-01-15T12:49:31.387Z,99831.38
2023-01-15T12:52:24.118Z,99829.69
2023-01-15T12:55:24.533Z,99828.81
2023-01-15T12:57:59.335Z,99834.34
2023-01-15T13:00:30.851Z,99828.09
2023-01-15T13:03:24.827Z,99837.25
2023-01-15T13:06:08.681Z,99836.41
2023-01-15T13:08:50.535Z,99840.94
2023-01-15T13:11:17.373Z,99829.34
2023-01-15T13:13:57.894Z,99826.66
2023-01-15T13:16:39.761Z,99834.00
2023-01-15T13:19:28.582Z,99836.69
2023-01-15T13:22:00.132Z,99833.88
2023-01-15T13:24:53.254Z,99836.69
2023-01-15T13:27:37.991Z,99832.88
2023-01-15T13:30:42.091Z,99820.28
2023-01-15T13:33:23.377Z,99822.84
2023-01-15T13:36:07.011Z,99827.38
2023-01-15T13:38:41.143Z,99839.72
2023-01-15T13:41:08.751Z,99840.28
2023-01-15T13:43:42.083Z,99839.88
2023-01-15T13:46:19.246Z,99840.31
2023-01-15T13:48:49.915Z,99841.28
2023-01-15T13:51:43.315Z,99844.69
2023-01-15T13:54:17.352Z,99840.88
2023-01-15T13:56:45.650Z,99844.41
2023-01-15T13:59:43.352Z,99836.34
2023-01-15T14:02:31.701Z,99841.59
2023-01-15T14:04:58.807Z,99850.50
2023-01-15T14:07:33.134Z,99851.50
2023-01-15T14:10:18.208Z,99853.19
2023-01-15T14:13:15.629Z,99846.69
2023-01-15T14:16:12.662Z,99860.00
2023-01-15T14:19:12.574Z,99845.56
2023-01-15T14:21:51.555Z,99847.28
2023-01-15T14:24:57.117Z,99853.34
2023-01-15T14:27:54.581Z,99848.69
2023-01-15T14:30:44.647Z,99852.94
2023-01-15T14:33:20.665Z,99860.72
2023-01-15T14:35:48.247Z,99854.34
2023-01-15T14:38:22.777Z,99854.09
2023-01-15T14:41:01.293Z,99857.47
2023-01-15T14:43:35.311Z,99863.56
2023-01-15T14:46:23.972Z,99861.44
2023-01-15T14:48:50.526Z,99855.66
2023-01-15T14:51:25.327Z,99862.59
2023-01-15T14:54:11.154Z,99855.22
2023-01-15T14:56:49.107Z,99866.84
2023-01-15T14:59:34.185Z,99864.28
2023-01-15T15:02:05.058Z,99864.44
2023-01-15T15:04:43.705Z,99868.09
2023-01-15T15:07:16.804Z,99878.00
2023-01-15T15:09:50.478Z,99880.84
2023-01-15T15:12:54.123Z,99881.84
2023-01-15T15:15:26.767Z,99889.19
2023-01-15T15:18:06.111Z,99877.88
2023-01-15T15:20:41.836Z,99881.69
2023-01-15T15:23:37.427Z,99898.50
2023-01-15T15:26:17.769Z,99889.72
2023-01-15T15:28:56.218Z,99887.31
2023-01-15T15:31:26.137Z,99892.97
2023-01-15T15:33:55.394Z,99894.81
2023-01-15T15:36:24.512Z,99886.16
2023-01-15T15:38:56.654Z,99872.16
2023-01-15T15:41:46.009Z,99886.84
2023-01-15T15:44:36.943Z,99873.81
2023-01-15T15:47:39.855Z,99892.47
2023-01-15T15:50:07.344Z,99885.78
2023-01-15T15:52:35.621Z,99873.59
2023-01-15T15:55:06.096Z,99897.19
2023-01-15T15:57:35.164Z,99895.75
2023-01-15T16:00:02.476Z,99908.63
2023-01-15T16:02:36.407Z,99909.75
2023-01-15T16:05:19.348Z,99903.91
2023-01-15T16:07:46.649Z,99906.72
2023-01-15T16:10:14.580Z,99891.72
2023-01-15T16:12:50.681Z,99899.34
2023-01-15T16:15:28.518Z,99892.53
2023-01-15T16:17:57.657Z,99903.53
2023-01-15T16:20:25.345Z,99902.97
2023-01-15T16:22:56.473Z,99900.69
2023-01-15T16:25:25.693Z,99904.47
2023-01-15T16:27:52.965Z,99915.34
2023-01-15T16:30:20.924Z,99903.03
2023-01-15T16:32:49.166Z,99913.06
2023-01-15T16:35:25.019Z,99908.66
2023-01-15T16:37:55.313Z,99918.69
2023-01-15T16:40:24.851Z,99914.31
2023-01-15T16:43:04.160Z,99921.75
2023-01-15T16:45:30.910Z,99930.53
2023-01-15T16:48:19.100Z,99934.34
2023-01-15T16:50:45.766Z,99939.56
2023-01-15T16:53:36.490Z,99932.50
2023-01-15T16:56:03.371Z,99936.03
2023-01-15T16:58:38.581Z,99940.81
2023-01-15T17:01:25.948Z,99940.09
2023-01-15T17:03:53.329Z,99945.47
2023-01-15T17:06:25.059Z,99941.94
2023-01-15T17:08:53.122Z,99948.38
2023-01-15T17:11:30.641Z,99940.31
2023-01-15T17:14:27.233Z,99944.84
2023-01-15T17:17:21.461Z,99947.41
2023-01-15T17:19:52.503Z,99947.41
2023-01-15T17:22:26.770Z,99949.34
2023-01-15T17:24:55.254Z,99943.28
2023-01-15T17:27:22.371Z,99952.31
2023-01-15T17:29:48.931Z,99934.50
2023-01-15T17:32:30.106Z,99949.63
2023-01-15T17:34:57.161Z,99951.31
2023-01-15T17:37:23.806Z,99948.75
2023-01-15T17:39:50.324Z,99950.59
2023-01-15T17:42:19.398Z,99955.97
2023-01-15T17:44:46.298Z,99963.28
2023-01-15T17:47:12.918Z,99964.28
2023-01-15T17:49:39.501Z,99971.59
2023-01-15T17:52:08.373Z,99970.88
2023-01-15T17:54:53.386Z,99962.97
2023-01-15T17:57:38.608Z,99961.13
2023-01-15T18:00:24.194Z,99942.47
2023-01-15T18:03:09.668Z,99953.34
2023-01-15T18:05:36.376Z,99949.94
2023-01-15T18:08:06.536Z,99962.72
2023-01-15T18:10:33.816Z,99956.75
2023-01-15T18:13:02.074Z,99953.47
2023-01-15T18:15:28.925Z,99958.13
2023-01-15T18:17:55.840Z,99958.13
2023-01-15T18:20:22.423Z,99952.03
2023-01-15T18:22:49.031Z,99946.78
2023-01-15T18:25:15.632Z,99946.78
2023-01-15T18:27:45.150Z,99944.22
2023-01-15T18:30:16.283Z,99942.66
2023-01-15T18:32:44.322Z,99940.97
2023-01-15T18:35:11.990Z,99942.78
2023-01-15T18:37:44.011Z,99939.38
2023-01-15T18:40:11.935Z,99942.31
2023-01-15T18:42:57.726Z,99946.09
2023-01-15T18:45:42.844Z,99941.00
2023-01-15T18:48:09.425Z,99952.09
2023-01-15T18:50:36.609Z,99946.13
2023-01-15T18:53:03.266Z,99957.84
2023-01-15T18:55:29.841Z,99941.16
2023-01-15T18:57:57.072Z,99940.56
2023-01-15T19:00:25.243Z,99939.81
2023-01-15T19:02:52.359Z,99949.56
2023-01-15T19:05:19.202Z,99944.34
2023-01-15T19:07:45.813Z,99940.44
2023-01-15T19:10:13.590Z,99943.09
2023-01-15T19:12:40.231Z,99944.81
2023-01-15T19:15:26.412Z,99943.84
2023-01-15T19:18:11.685Z,99941.16
2023-01-15T19:20:39.391Z,99937.50
2023-01-15T19:23:06.805Z,99933.72
2023-01-15T19:25:45.094Z,99924.81
2023-01-15T19:28:17.665Z,99931.88
2023-01-15T19:31:06.519Z,99923.72
2023-01-15T19:33:33.832Z,99919.19
2023-01-15T19:36:00.495Z,99917.38
2023-01-15T19:38:27.066Z,99918.34
2023-01-15T19:40:53.589Z,99911.28
2023-01-15T19:43:38.799Z,99905.06
2023-01-15T19:46:23.867Z,99898.84
2023-01-15T19:49:09.142Z,99894.47
2023-01-15T19:51:54.414Z,99890.94
2023-01-15T19:54:40.913Z,99897.03
2023-01-15T19:57:07.434Z,99892.38
2023-01-15T19:59:33.995Z,99887.75
2023-01-15T20:02:03.186Z,99885.91
2023-01-15T20:04:31.223Z,99886.16
2023-01-15T20:06:57.765Z,99883.63
2023-01-15T20:09:24.355Z,99881.91
2023-01-15T20:12:09.146Z,99870.59
2023-01-15T20:14:35.678Z,99864.88
2023-01-15T20:17:02.207Z,99854.50
2023-01-15T20:19:28.744Z,99863.78
2023-01-15T20:21:55.369Z,99856.97
2023-01-15T20:24:23.032Z,99844.69
2023-01-15T20:26:49.565Z,99844.81
2023-01-15T20:29:16.096Z,99836.03
2023-01-15T20:31:42.775Z,99832.63
2023-01-15T20:34:09.397Z,99827.53
2023-01-15T20:36:43.211Z,99821.44
2023-01-15T20:39:09.766Z,99830.59
2023-01-15T20:41:55.021Z,99822.69
2023-01-15T20:44:39.968Z,99821.94
2023-01-15T20:47:26.476Z,99817.09
2023-01-15T20:49:53.026Z,99802.13
2023-01-15T20:52:19.490Z,99812.13
2023-01-15T20:54:45.976Z,99808.72
2023-01-15T20:57:12.537Z,99803.47
2023-01-15T20:59:39.065Z,99800.06
2023-01-15T21:02:06.277Z,99800.94
2023-01-15T21:04:32.999Z,99787.53
2023-01-15T21:06:59.488Z,99787.41
2023-01-15T21:09:26.075Z,99787.16
2023-01-15T21:11:52.554Z,99781.53
2023-01-15T21:14:19.063Z,99779.59
2023-01-15T21:16:45.706Z,99768.63
2023-01-15T21:19:12.253Z,99766.41
2023-01-15T21:21:38.976Z,99765.16
2023-01-15T21:24:05.827Z,99761.50
2023-01-15T21:26:34.689Z,99762.25
2023-01-15T21:29:01.213Z,99757.47
2023-01-15T21:31:30.550Z,99749.31
2023-01-15T21:33:57.082Z,99746.38
2023-01-15T21:36:24.448Z,99738.31
2023-01-15T21:38:53.407Z,99734.19
2023-01-15T21:41:41.321Z,99726.28
2023-01-15T21:44:50.518Z,99721.06
2023-01-15T21:47:19.075Z,99724.72
2023-01-15T21:49:46.305Z,99717.78
2023-01-15T21:52:18.502Z,99720.59
2023-01-15T21:54:46.370Z,99707.91
2023-01-15T21:57:13.669Z,99705.97
2023-01-15T21:59:41.121Z,99697.53
2023-01-15T22:02:15.042Z,99690.06
2023-01-15T22:04:43.430Z,99690.66
2023-01-15T22:07:10.897Z,99690.41
2023-01-15T22:09:37.745Z,99677.59
2023-01-15T22:12:05.124Z,99678.31
2023-01-15T22:14:32.878Z,99676.38
2023-01-15T22:17:01.606Z,99671.88
2023-01-15T22:19:29.859Z,99669.78
2023-01-15T22:22:03.160Z,99661.47
2023-01-15T22:24:32.807Z,99652.16
2023-01-15T22:27:00.956Z,99662.63
2023-01-15T22:29:32.315Z,99639.34
2023-01-15T22:31:59.371Z,99638.22
2023-01-15T22:34:27.680Z,99630.91
2023-01-15T22:36:54.958Z,99631.88
2023-01-15T22:39:23.259Z,99623.00
2023-01-15T22:42:08.589Z,99620.31
2023-01-15T22:44:35.755Z,99616.50
2023-01-15T22:47:03.077Z,99608.59
2023-01-15T22:49:29.655Z,99603.38
2023-01-15T22:51:56.451Z,99598.84
2023-01-15T22:54:23.591Z,99586.56
2023-01-15T22:56:50.104Z,99585.72
2023-01-15T22:59:16.804Z,99575.97
2023-01-15T23:01:43.789Z,99576.56
2023-01-15T23:04:16.671Z,99569.22
2023-01-15T23:06:44.293Z,99571.91
2023-01-15T23:09:11.246Z,99574.59
2023-01-15T23:11:38.774Z,99563.16
2023-01-15T23:14:06.721Z,99560.31
2023-01-15T23:16:33.308Z,99557.38
2023-01-15T23:18:59.866Z,99551.03
2023-01-15T23:21:26.860Z,99550.88
2023-01-15T23:23:55.427Z,99549.91
2023-01-15T23:26:23.187Z,99541.00
2023-01-15T23:28:50.975Z,99550.88
2023-01-15T23:31:19.258Z,99535.78
2023-01-15T23:33:46.134Z,99539.59
2023-01-15T23:36:13.373Z,99536.19
2023-01-15T23:38:41.518Z,99530.13
2023-01-15T23:41:09.909Z,99528.44
2023-01-15T23:43:54.845Z,99536.59
2023-01-15T23:46:33.480Z,99527.13
2023-01-15T23:49:05.052Z,99530.09
2023-01-15T23:51:32.520Z,99540.25
2023-01-15T23:53:59.750Z,99535.28
2023-01-15T23:56:26.956Z,99533.81
2023-01-15T23:58:54.302Z,99525.06
